»·PEaware :: N313KP KSNA-KSBA

N313KP :: KSNA-KSBA

FLIGHT INFORMATION

Flight Status: Arrived
Operator: Privately registered:
United States
More flights under this callsign
Pilot: Erik A. (17503)
Aircraft: BEECH AIRCRAFT BONANZA
(BE35)
More flights by this aircraft type
Origin: KSNA John Wayne-Orange Co
United States
Destination: KSBA Santa Barbara Mun
United States
More flights between these airports :: More routes between these airports
Route: +
File this flight plan on PilotEdge
Remarks:
Altitude:
(Current/Filed)
2,500ft
Speed:
(Current/Filed)
130kts
Departed: 26-Jan-19 12:08 PM
Arrived: 26-Jan-19 01:04 PM
Distance/Time
Traveled:
108nm/0:55
Distance/Time
To Go:
Arrived

Flight Plot

Page will automatically refresh every two minutes.


Map Options




Map Legend


Flown Route
Filed Route
Departure Airport
Arrival Airport
Navaid (VOR, NDB)
Fix

Horizontal Profiles

Position Reports

Time Latitude Longitude Heading Altitude Ground
Speed
26-Jan-19 11:35 33.666678 -117.872561 222 59ft 0kts
26-Jan-19 11:36 33.666678 -117.872561 222 59ft 0kts
26-Jan-19 11:37 33.666678 -117.872561 222 59ft 0kts
26-Jan-19 11:38 33.666678 -117.872561 222 59ft 0kts
26-Jan-19 11:39 33.666678 -117.872561 222 59ft 0kts
26-Jan-19 11:40 33.666678 -117.872561 222 59ft 0kts
26-Jan-19 11:41 33.666678 -117.872561 222 59ft 0kts
26-Jan-19 11:42 33.666678 -117.872561 222 59ft 0kts
26-Jan-19 11:43 33.666678 -117.872561 222 59ft 0kts
26-Jan-19 11:44 33.666676 -117.872563 222 59ft 0kts
26-Jan-19 11:45 33.666674 -117.872565 222 59ft 0kts
26-Jan-19 11:46 33.666673 -117.872567 222 59ft 0kts
26-Jan-19 11:47 33.666671 -117.872569 222 59ft 0kts
26-Jan-19 11:48 33.666669 -117.872571 222 59ft 0kts
26-Jan-19 11:49 33.666667 -117.872573 222 59ft 0kts
26-Jan-19 11:50 33.666665 -117.872575 222 59ft 0kts
26-Jan-19 11:51 33.666663 -117.872578 222 59ft 0kts
26-Jan-19 11:52 33.666661 -117.872580 222 59ft 0kts
26-Jan-19 11:53 33.666659 -117.872582 222 59ft 0kts
26-Jan-19 11:54 33.666657 -117.872584 222 59ft 0kts
26-Jan-19 11:55 33.666655 -117.872586 223 59ft 0kts
26-Jan-19 11:56 33.666703 -117.872749 328 59ft 0kts
26-Jan-19 11:57 33.666705 -117.872750 328 59ft 0kts
26-Jan-19 11:58 33.667027 -117.872804 13 59ft 1kts
26-Jan-19 11:59 33.667500 -117.872851 297 59ft 2kts
26-Jan-19 12:00 33.667530 -117.872919 297 59ft 0kts
26-Jan-19 12:01 33.667531 -117.872922 297 59ft 0kts
26-Jan-19 12:02 33.667532 -117.872924 297 59ft 0kts
26-Jan-19 12:03 33.667533 -117.872927 297 59ft 0kts
26-Jan-19 12:04 33.667536 -117.872933 297 59ft 0kts
26-Jan-19 12:05 33.667538 -117.872939 297 59ft 0kts
26-Jan-19 12:06 33.667672 -117.873235 300 59ft 5kts
26-Jan-19 12:07 33.676814 -117.868097 29 131ft 79kts
26-Jan-19 12:08 33.699516 -117.860845 328 877ft 110kts
26-Jan-19 12:09 33.697473 -117.889681 255 1523ft 125kts
26-Jan-19 12:10 33.688192 -117.924029 256 1956ft 138kts
26-Jan-19 12:11 33.679768 -117.960214 257 2416ft 134kts
26-Jan-19 12:12 33.674929 -118.004795 284 2567ft 133kts
26-Jan-19 12:13 33.689014 -118.045862 296 2583ft 131kts
26-Jan-19 12:14 33.700907 -118.080832 294 2531ft 134kts
26-Jan-19 12:15 33.716851 -118.120945 301 2503ft 131kts
26-Jan-19 12:16 33.731660 -118.159704 293 2621ft 123kts
26-Jan-19 12:17 33.746649 -118.197784 297 2644ft 133kts
26-Jan-19 12:18 33.765672 -118.236244 314 2834ft 137kts
26-Jan-19 12:19 33.794530 -118.268077 318 2633ft 138kts
26-Jan-19 12:20 33.823821 -118.296980 321 2508ft 135kts
26-Jan-19 12:21 33.852475 -118.323530 326 2481ft 127kts
26-Jan-19 12:22 33.882539 -118.345291 328 2547ft 130kts
26-Jan-19 12:23 33.912152 -118.372306 328 2629ft 136kts
26-Jan-19 12:24 33.944750 -118.396622 331 2414ft 135kts
26-Jan-19 12:26 33.974466 -118.421177 325 2422ft 127kts
26-Jan-19 12:27 34.003150 -118.446608 323 2442ft 127kts
26-Jan-19 12:28 34.031155 -118.472357 324 2547ft 125kts
26-Jan-19 12:29 34.056847 -118.496725 325 3068ft 114kts
26-Jan-19 12:30 34.078006 -118.518047 320 3511ft 116kts
26-Jan-19 12:31 34.103374 -118.543953 326 4094ft 119kts
26-Jan-19 12:32 34.129168 -118.570365 311 4654ft 130kts
26-Jan-19 12:33 34.143995 -118.611939 274 4728ft 142kts
26-Jan-19 12:34 34.145335 -118.660799 275 4728ft 149kts
26-Jan-19 12:35 34.146439 -118.691861 274 4717ft 151kts
26-Jan-19 12:36 34.151970 -118.741523 290 4551ft 148kts
26-Jan-19 12:37 34.165758 -118.788091 289 4379ft 146kts
26-Jan-19 12:38 34.179323 -118.833044 293 4370ft 141kts
26-Jan-19 12:39 34.194024 -118.876949 290 4566ft 142kts
26-Jan-19 12:40 34.202590 -118.924697 278 4570ft 145kts
26-Jan-19 12:41 34.206837 -118.973712 278 4647ft 147kts
26-Jan-19 12:42 34.210617 -119.023736 276 4508ft 149kts
26-Jan-19 12:43 34.211798 -119.073753 278 4556ft 148kts
26-Jan-19 12:43 34.217904 -119.114631 282 4516ft 147kts
26-Jan-19 12:44 34.225217 -119.163546 282 4330ft 147kts
26-Jan-19 12:46 34.238181 -119.217604 290 4343ft 142kts
26-Jan-19 12:47 34.253770 -119.261456 300 4529ft 143kts
26-Jan-19 12:48 34.273159 -119.304240 299 4493ft 144kts
26-Jan-19 12:48 34.290292 -119.339145 304 4468ft 143kts
26-Jan-19 12:49 34.313099 -119.379105 303 4279ft 144kts
26-Jan-19 12:50 34.335163 -119.419033 306 4329ft 142kts
26-Jan-19 12:51 34.357941 -119.457049 305 4320ft 135kts
26-Jan-19 12:52 34.377100 -119.496455 298 4280ft 136kts
26-Jan-19 12:53 34.390542 -119.539464 287 4175ft 137kts
26-Jan-19 12:54 34.400415 -119.582850 284 3948ft 135kts
26-Jan-19 12:55 34.408942 -119.627033 285 3540ft 133kts
26-Jan-19 12:56 34.420099 -119.669408 288 3132ft 129kts
26-Jan-19 12:57 34.432340 -119.709580 292 2607ft 126kts
26-Jan-19 12:58 34.440683 -119.740642 279 2114ft 103kts
26-Jan-19 12:59 34.444848 -119.772061 277 1562ft 91kts
26-Jan-19 13:00 34.447289 -119.801894 273 1081ft 85kts
26-Jan-19 13:01 34.447140 -119.829549 262 756ft 81kts
26-Jan-19 13:02 34.432425 -119.840824 170 66ft 71kts
26-Jan-19 13:03 34.423372 -119.838035 165 13ft 11kts
26-Jan-19 13:04 34.423168 -119.836651 76 13ft 5kts
26-Jan-19 13:05 34.423096 -119.836111 170 13ft 0kts
26-Jan-19 13:06 34.423095 -119.836111 170 13ft 0kts
26-Jan-19 13:07 34.423095 -119.836111 170 13ft 0kts

Navigation Log

Ident Type
Flight plan parsing failed, navigation log unavailable